createdAt,value
2019-03-19T00:01:57.237Z,6.40
2019-03-19T00:04:24.110Z,5.90
2019-03-19T00:06:54.215Z,6.00
2019-03-19T00:09:21.171Z,5.80
2019-03-19T00:11:47.770Z,5.60
2019-03-19T00:14:16.638Z,5.60
2019-03-19T00:16:45.163Z,5.50
2019-03-19T00:22:04.221Z,5.00
2019-03-19T00:24:33.380Z,5.20
2019-03-19T00:27:02.285Z,5.40
2019-03-19T00:29:30.050Z,5.60
2019-03-19T00:32:03.366Z,5.60
2019-03-19T00:34:33.530Z,5.30
2019-03-19T00:37:02.700Z,5.30
2019-03-19T00:39:31.708Z,5.50
2019-03-19T00:41:59.317Z,4.80
2019-03-19T00:44:31.023Z,4.90
2019-03-19T00:47:02.726Z,4.90
2019-03-19T00:49:34.195Z,5.00
2019-03-19T00:52:01.377Z,5.20
2019-03-19T00:54:34.582Z,5.30
2019-03-19T00:57:05.494Z,5.20
2019-03-19T00:59:34.984Z,5.40
2019-03-19T01:02:09.322Z,5.10
2019-03-19T01:04:35.823Z,4.50
2019-03-19T01:07:04.984Z,4.50
2019-03-19T01:09:32.780Z,4.60
2019-03-19T01:12:03.984Z,5.00
2019-03-19T01:14:32.419Z,4.80
2019-03-19T01:17:01.763Z,4.20
2019-03-19T01:19:31.347Z,4.50
2019-03-19T01:21:59.324Z,4.60
2019-03-19T01:24:27.983Z,5.10
2019-03-19T01:26:54.837Z,4.60
2019-03-19T01:29:31.805Z,4.70
2019-03-19T01:31:55.671Z,4.80
2019-03-19T01:34:22.465Z,4.60
2019-03-19T01:36:52.632Z,4.40
2019-03-19T01:39:26.096Z,4.40
2019-03-19T01:41:56.809Z,4.40
2019-03-19T01:44:37.554Z,4.50
2019-03-19T01:47:04.269Z,4.90
2019-03-19T01:49:34.624Z,5.00
2019-03-19T01:52:04.627Z,5.00
2019-03-19T01:54:32.786Z,5.40
2019-03-19T01:57:00.390Z,5.50
2019-03-19T01:59:28.445Z,5.00
2019-03-19T02:01:55.633Z,4.50
2019-03-19T02:04:23.480Z,4.40
2019-03-19T02:06:52.539Z,4.90
2019-03-19T02:09:19.177Z,5.30
2019-03-19T02:11:45.809Z,5.50
2019-03-19T02:14:12.492Z,5.40
2019-03-19T02:16:39.374Z,5.60
2019-03-19T02:19:07.263Z,5.50
2019-03-19T02:21:33.899Z,5.40
2019-03-19T02:24:00.509Z,5.40
2019-03-19T02:26:27.411Z,5.40
2019-03-19T02:28:54.214Z,5.00
2019-03-19T02:31:20.843Z,4.80
2019-03-19T02:33:47.794Z,4.80
2019-03-19T02:36:15.810Z,4.70
2019-03-19T02:38:42.503Z,4.70
2019-03-19T02:41:09.398Z,4.80
2019-03-19T02:43:36.400Z,5.00
2019-03-19T02:46:03.301Z,5.20
2019-03-19T02:48:29.983Z,5.40
2019-03-19T02:50:56.636Z,5.50
2019-03-19T02:53:23.318Z,5.30
2019-03-19T02:55:50.073Z,4.80
2019-03-19T02:58:16.965Z,5.00
2019-03-19T03:00:43.685Z,5.00
2019-03-19T03:03:10.388Z,4.70
2019-03-19T03:05:37.114Z,4.70
2019-03-19T03:08:04.004Z,4.40
2019-03-19T03:10:30.809Z,4.20
2019-03-19T03:13:02.071Z,4.30
2019-03-19T03:15:34.590Z,4.70
2019-03-19T03:18:06.941Z,4.80
2019-03-19T03:20:36.430Z,4.60
2019-03-19T03:23:05.336Z,4.60
2019-03-19T03:25:33.037Z,4.60
2019-03-19T03:28:02.433Z,4.60
2019-03-19T03:30:32.188Z,4.30
2019-03-19T03:33:02.890Z,4.20
2019-03-19T03:35:30.944Z,4.20
2019-03-19T03:37:58.589Z,4.50
2019-03-19T03:40:26.317Z,4.60
2019-03-19T03:42:53.544Z,4.50
2019-03-19T03:45:24.779Z,4.70
2019-03-19T03:47:54.497Z,5.00
2019-03-19T03:50:24.753Z,5.00
2019-03-19T03:52:57.936Z,5.10
2019-03-19T03:55:25.415Z,5.30
2019-03-19T03:58:00.051Z,5.10
2019-03-19T04:00:29.788Z,4.90
2019-03-19T04:03:02.636Z,4.80
2019-03-19T04:05:32.380Z,4.40
2019-03-19T04:10:44.491Z,4.30
2019-03-19T04:13:11.307Z,4.60
2019-03-19T04:15:38.186Z,4.70
2019-03-19T04:18:05.112Z,4.60
2019-03-19T04:20:31.823Z,4.00
2019-03-19T04:22:58.570Z,3.90
2019-03-19T04:25:25.330Z,4.30
2019-03-19T04:27:52.002Z,4.40
2019-03-19T04:30:18.869Z,4.70
2019-03-19T04:32:45.770Z,4.80
2019-03-19T04:35:12.599Z,4.60
2019-03-19T04:37:39.451Z,4.60
2019-03-19T04:40:06.332Z,4.50
2019-03-19T04:42:32.914Z,4.40
2019-03-19T04:44:59.823Z,4.60
2019-03-19T04:47:27.881Z,4.70
2019-03-19T04:49:54.576Z,4.70
2019-03-19T04:52:21.195Z,4.40
2019-03-19T04:54:48.090Z,4.40
2019-03-19T04:57:26.028Z,4.20
2019-03-19T04:59:43.237Z,4.40
2019-03-19T05:02:09.899Z,4.30
2019-03-19T05:04:36.493Z,4.50
2019-03-19T05:07:03.731Z,4.50
2019-03-19T05:09:30.506Z,4.60
2019-03-19T05:11:57.155Z,4.90
2019-03-19T05:14:25.095Z,5.00
2019-03-19T05:16:51.793Z,4.90
2019-03-19T05:19:18.370Z,4.70
2019-03-19T05:21:44.983Z,4.90
2019-03-19T05:24:11.662Z,4.80
2019-03-19T05:26:38.366Z,4.10
2019-03-19T05:29:05.265Z,4.30
2019-03-19T05:31:31.915Z,4.70
2019-03-19T05:33:58.537Z,4.70
2019-03-19T05:36:25.568Z,4.40
2019-03-19T05:38:53.204Z,4.40
2019-03-19T05:41:21.079Z,4.10
2019-03-19T05:43:47.681Z,3.90
2019-03-19T05:46:14.442Z,4.00
2019-03-19T05:48:41.253Z,3.40
2019-03-19T05:51:08.178Z,3.20
2019-03-19T05:53:36.104Z,3.60
2019-03-19T05:56:04.266Z,3.60
2019-03-19T05:58:30.870Z,3.90
2019-03-19T06:00:57.821Z,4.40
2019-03-19T06:03:24.754Z,4.00
2019-03-19T06:05:51.971Z,4.40
2019-03-19T06:08:24.492Z,4.70
2019-03-19T06:13:39.026Z,4.20
2019-03-19T06:16:09.667Z,4.30
2019-03-19T06:18:36.956Z,4.10
2019-03-19T06:21:04.272Z,4.40
2019-03-19T06:23:35.020Z,4.80
2019-03-19T06:26:10.281Z,4.60
2019-03-19T06:31:24.123Z,4.00
2019-03-19T06:33:53.932Z,4.30
2019-03-19T06:36:21.581Z,4.50
2019-03-19T06:38:52.115Z,4.40
2019-03-19T06:41:21.551Z,4.80
2019-03-19T06:43:52.221Z,4.80
2019-03-19T06:46:18.752Z,5.10
2019-03-19T06:48:50.327Z,5.00
2019-03-19T06:51:18.270Z,5.00
2019-03-19T06:53:49.469Z,5.30
2019-03-19T06:56:16.621Z,5.60
2019-03-19T06:58:44.242Z,5.80
2019-03-19T07:01:11.981Z,6.10
2019-03-19T07:03:57.486Z,6.20
2019-03-19T07:06:25.941Z,6.40
2019-03-19T07:08:52.863Z,6.50
2019-03-19T07:11:39.034Z,6.30
2019-03-19T07:14:08.791Z,6.20
2019-03-19T07:16:39.534Z,5.70
2019-03-19T07:19:09.030Z,5.40
2019-03-19T07:21:37.005Z,5.70
2019-03-19T07:24:21.198Z,6.40
2019-03-19T07:26:48.034Z,6.10
2019-03-19T07:29:18.961Z,6.60
2019-03-19T07:31:46.342Z,6.70
2019-03-19T07:34:18.325Z,6.60
2019-03-19T07:36:46.045Z,6.90
2019-03-19T07:42:00.784Z,6.80
2019-03-19T07:44:31.629Z,6.60
2019-03-19T07:46:58.846Z,6.90
2019-03-19T07:49:30.106Z,7.50
2019-03-19T07:51:56.779Z,7.80
2019-03-19T07:54:26.097Z,7.30
2019-03-19T07:56:53.733Z,6.80
2019-03-19T07:59:20.639Z,7.20
2019-03-19T08:01:51.840Z,7.90
2019-03-19T08:04:26.487Z,8.30
2019-03-19T08:06:54.400Z,8.60
2019-03-19T08:09:23.941Z,8.70
2019-03-19T08:11:53.099Z,8.70
2019-03-19T08:14:19.894Z,8.60
2019-03-19T08:16:49.508Z,8.30
2019-03-19T08:22:05.005Z,8.20
2019-03-19T08:24:33.761Z,8.70
2019-03-19T08:27:00.982Z,8.50
2019-03-19T08:29:30.559Z,8.60
2019-03-19T08:35:01.224Z,8.40
2019-03-19T08:37:29.129Z,8.60
2019-03-19T08:39:59.175Z,9.00
2019-03-19T08:42:29.220Z,9.20
2019-03-19T08:44:58.445Z,9.10
2019-03-19T08:47:33.130Z,8.30
2019-03-19T08:50:03.448Z,8.70
2019-03-19T08:52:30.312Z,9.20
2019-03-19T08:55:01.240Z,9.30
2019-03-19T08:57:30.151Z,8.60
2019-03-19T08:59:58.048Z,8.70
2019-03-19T09:02:25.754Z,9.10
2019-03-19T09:04:53.465Z,9.80
2019-03-19T09:07:24.662Z,10.00
2019-03-19T09:09:53.495Z,9.80
2019-03-19T09:12:20.256Z,9.60
2019-03-19T09:14:54.087Z,9.90
2019-03-19T09:17:21.638Z,10.10
2019-03-19T09:19:54.869Z,9.30
2019-03-19T09:22:29.583Z,9.20
2019-03-19T09:24:58.648Z,9.20
2019-03-19T09:27:28.187Z,9.40
2019-03-19T09:30:01.744Z,9.80
2019-03-19T09:32:34.959Z,10.30
2019-03-19T09:35:04.541Z,10.20
2019-03-19T09:37:32.736Z,10.50
2019-03-19T09:40:03.824Z,10.40
2019-03-19T09:42:38.114Z,10.30
2019-03-19T09:45:06.530Z,10.10
2019-03-19T09:47:38.581Z,10.20
2019-03-19T09:50:06.340Z,10.40
2019-03-19T09:52:37.718Z,10.60
2019-03-19T09:55:09.742Z,10.50
2019-03-19T09:57:41.526Z,10.20
2019-03-19T10:00:09.461Z,10.10
2019-03-19T10:02:43.692Z,10.20
2019-03-19T10:05:14.375Z,10.30
2019-03-19T10:07:44.535Z,9.80
2019-03-19T10:10:12.456Z,10.60
2019-03-19T10:12:43.317Z,11.00
2019-03-19T10:15:11.688Z,9.90
2019-03-19T10:17:42.269Z,10.10
2019-03-19T10:20:13.293Z,10.40
2019-03-19T10:22:41.122Z,9.40
2019-03-19T10:27:58.392Z,10.10
2019-03-19T10:30:26.379Z,9.70
2019-03-19T10:32:54.271Z,9.20
2019-03-19T10:35:21.719Z,9.10
2019-03-19T10:37:53.354Z,9.40
2019-03-19T10:40:21.235Z,9.60
2019-03-19T10:42:49.588Z,9.40
2019-03-19T10:45:20.549Z,9.60
2019-03-19T10:47:48.224Z,9.10
2019-03-19T10:50:14.644Z,9.50
2019-03-19T10:52:43.351Z,10.00
2019-03-19T10:55:13.930Z,10.10
2019-03-19T10:57:43.657Z,10.60
2019-03-19T11:00:11.103Z,10.50
2019-03-19T11:02:38.912Z,10.60
2019-03-19T11:05:07.347Z,10.50
2019-03-19T11:07:34.304Z,10.30
2019-03-19T11:10:01.235Z,10.00
2019-03-19T11:12:28.861Z,9.40
2019-03-19T11:14:55.615Z,9.70
2019-03-19T11:17:22.364Z,10.20
2019-03-19T11:19:49.818Z,10.50
2019-03-19T11:22:19.132Z,9.80
2019-03-19T11:24:45.951Z,9.90
2019-03-19T11:27:12.681Z,9.90
2019-03-19T11:29:39.353Z,10.50
2019-03-19T11:32:06.318Z,10.20
2019-03-19T11:34:33.740Z,9.60
2019-03-19T11:37:00.465Z,10.00
2019-03-19T11:39:27.102Z,10.00
2019-03-19T11:41:53.897Z,10.60
2019-03-19T11:44:20.907Z,10.50
2019-03-19T11:46:47.517Z,10.60
2019-03-19T11:49:14.172Z,10.00
2019-03-19T11:51:41.057Z,9.20
2019-03-19T11:54:09.026Z,9.70
2019-03-19T11:56:35.676Z,10.10
2019-03-19T11:59:02.432Z,10.40
2019-03-19T12:01:29.055Z,10.80
2019-03-19T12:03:56.014Z,11.00
2019-03-19T12:06:22.916Z,11.20
2019-03-19T12:09:00.291Z,10.40
2019-03-19T12:11:28.316Z,10.00
2019-03-19T12:14:00.706Z,10.20
2019-03-19T12:16:27.410Z,11.00
2019-03-19T12:18:54.132Z,11.00
2019-03-19T12:21:21.047Z,10.40
2019-03-19T12:23:47.716Z,10.30
2019-03-19T12:26:14.710Z,10.80
2019-03-19T12:28:41.649Z,10.70
2019-03-19T12:31:09.563Z,11.10
2019-03-19T12:33:40.793Z,11.00
2019-03-19T12:36:05.186Z,11.20
2019-03-19T12:38:31.801Z,11.80
2019-03-19T12:40:58.460Z,11.80
2019-03-19T12:43:25.166Z,11.10
2019-03-19T12:45:53.155Z,10.70
2019-03-19T12:48:20.096Z,10.80
2019-03-19T12:50:46.879Z,11.40
2019-03-19T12:53:13.820Z,11.20
2019-03-19T12:55:40.490Z,11.40
2019-03-19T12:58:07.158Z,11.40
2019-03-19T13:00:35.010Z,11.00
2019-03-19T13:03:01.842Z,10.90
2019-03-19T13:05:28.531Z,11.20
2019-03-19T13:07:55.207Z,11.00
2019-03-19T13:10:22.078Z,10.30
2019-03-19T13:12:48.823Z,10.30
2019-03-19T13:15:15.471Z,10.90
2019-03-19T13:17:42.132Z,10.90
2019-03-19T13:20:08.738Z,10.90
2019-03-19T13:22:35.712Z,10.80
2019-03-19T13:25:02.719Z,11.00
2019-03-19T13:27:29.327Z,10.90
2019-03-19T13:29:56.191Z,10.60
2019-03-19T13:32:22.997Z,10.50
2019-03-19T13:34:49.650Z,9.90
2019-03-19T13:37:16.496Z,10.20
2019-03-19T13:39:44.757Z,10.70
2019-03-19T13:42:11.414Z,10.90
2019-03-19T13:44:38.314Z,11.10
2019-03-19T13:47:06.165Z,10.90
2019-03-19T13:49:32.863Z,11.30
2019-03-19T13:51:59.775Z,11.00
2019-03-19T13:54:27.862Z,11.00
2019-03-19T13:56:54.652Z,11.00
2019-03-19T13:59:21.560Z,11.10
2019-03-19T14:01:48.201Z,11.10
2019-03-19T14:04:14.875Z,10.80
2019-03-19T14:06:42.068Z,10.60
2019-03-19T14:09:13.368Z,11.10
2019-03-19T14:11:40.316Z,11.30
2019-03-19T14:14:08.955Z,11.80
2019-03-19T14:16:39.557Z,12.00
2019-03-19T14:19:07.411Z,12.30
2019-03-19T14:21:34.878Z,12.40
2019-03-19T14:24:05.429Z,10.80
2019-03-19T14:26:39.060Z,10.20
2019-03-19T14:29:10.632Z,10.60
2019-03-19T14:31:38.508Z,10.70
2019-03-19T14:34:06.497Z,10.90
2019-03-19T14:36:34.988Z,10.60
2019-03-19T14:39:04.731Z,10.40
2019-03-19T14:41:32.039Z,10.60
2019-03-19T14:44:03.198Z,10.50
2019-03-19T14:46:32.220Z,10.50
2019-03-19T14:49:02.111Z,10.70
2019-03-19T14:51:36.172Z,10.70
2019-03-19T14:54:02.211Z,10.20
2019-03-19T14:56:30.819Z,8.90
2019-03-19T14:58:58.811Z,8.80
2019-03-19T15:01:28.937Z,8.90
2019-03-19T15:03:55.700Z,8.60
2019-03-19T15:06:22.553Z,7.80
2019-03-19T15:08:49.433Z,8.20
2019-03-19T15:11:16.310Z,8.30
2019-03-19T15:13:43.295Z,8.10
2019-03-19T15:16:10.126Z,8.10
2019-03-19T15:18:36.968Z,8.00
2019-03-19T15:21:03.616Z,8.00
2019-03-19T15:23:30.300Z,8.00
2019-03-19T15:25:59.253Z,8.30
2019-03-19T15:28:25.799Z,8.60
2019-03-19T15:30:52.504Z,8.50
2019-03-19T15:33:19.106Z,8.70
2019-03-19T15:35:45.730Z,9.00
2019-03-19T15:38:13.029Z,9.00
2019-03-19T15:40:39.660Z,8.70
2019-03-19T15:43:07.482Z,8.50
2019-03-19T15:45:34.298Z,8.50
2019-03-19T15:48:01.209Z,8.70
2019-03-19T15:50:27.788Z,8.60
2019-03-19T15:52:54.726Z,8.10
2019-03-19T15:55:21.434Z,8.20
2019-03-19T15:57:48.062Z,7.80
2019-03-19T16:00:14.879Z,8.10
2019-03-19T16:02:41.792Z,8.50
2019-03-19T16:05:08.710Z,8.60
2019-03-19T16:07:38.090Z,8.50
2019-03-19T16:10:06.437Z,8.30
2019-03-19T16:12:34.033Z,8.60
2019-03-19T16:17:50.653Z,9.10
2019-03-19T16:20:20.565Z,9.20
2019-03-19T16:22:51.494Z,9.50
2019-03-19T16:25:21.275Z,9.50
2019-03-19T16:27:56.721Z,9.40
2019-03-19T16:30:20.812Z,9.60
2019-03-19T16:32:49.431Z,9.60
2019-03-19T16:35:16.114Z,9.30
2019-03-19T16:37:48.959Z,8.50
2019-03-19T16:40:21.764Z,8.40
2019-03-19T16:42:50.098Z,8.50
2019-03-19T16:45:23.507Z,8.20
2019-03-19T16:47:51.934Z,8.30
2019-03-19T16:50:22.906Z,8.10
2019-03-19T16:52:52.283Z,8.40
2019-03-19T16:55:24.719Z,8.70
2019-03-19T16:57:53.623Z,8.30
2019-03-19T17:00:24.608Z,8.00
2019-03-19T17:02:52.755Z,8.20
2019-03-19T17:05:19.637Z,8.60
2019-03-19T17:07:46.402Z,8.90
2019-03-19T17:10:13.232Z,8.80
2019-03-19T17:12:41.960Z,8.30
2019-03-19T17:15:08.509Z,8.20
2019-03-19T17:17:35.418Z,7.90
2019-03-19T17:20:02.188Z,7.80
2019-03-19T17:22:28.856Z,8.00
2019-03-19T17:24:55.532Z,8.10
2019-03-19T17:27:23.080Z,8.40
2019-03-19T17:29:49.832Z,8.50
2019-03-19T17:32:16.477Z,8.20
2019-03-19T17:34:43.155Z,8.60
2019-03-19T17:37:09.828Z,8.50
2019-03-19T17:39:36.755Z,8.40
2019-03-19T17:42:03.378Z,8.00
2019-03-19T17:44:30.016Z,8.40
2019-03-19T17:46:57.092Z,8.20
2019-03-19T17:49:23.859Z,7.20
2019-03-19T17:51:50.811Z,6.80
2019-03-19T17:54:19.062Z,7.20
2019-03-19T17:56:45.681Z,7.70
2019-03-19T17:59:12.358Z,7.50
2019-03-19T18:01:39.305Z,7.00
2019-03-19T18:04:06.063Z,7.00
2019-03-19T18:06:32.983Z,7.10
2019-03-19T18:11:45.620Z,7.30
2019-03-19T18:14:12.220Z,7.40
2019-03-19T18:16:39.577Z,7.50
2019-03-19T18:19:06.701Z,7.20
2019-03-19T18:21:33.538Z,7.10
2019-03-19T18:24:00.530Z,7.30
2019-03-19T18:28:59.992Z,7.40
2019-03-19T18:31:27.060Z,7.20
2019-03-19T18:34:15.197Z,7.10
2019-03-19T18:36:43.735Z,6.30
2019-03-19T18:39:11.179Z,6.30
2019-03-19T18:41:37.949Z,5.80
2019-03-19T18:44:06.237Z,5.80
2019-03-19T18:46:32.889Z,6.20
2019-03-19T18:48:59.596Z,6.70
2019-03-19T18:51:26.631Z,6.60
2019-03-19T18:53:53.397Z,6.90
2019-03-19T18:56:20.063Z,6.90
2019-03-19T18:58:46.995Z,6.80
2019-03-19T19:01:13.721Z,7.20
2019-03-19T19:03:40.855Z,7.30
2019-03-19T19:06:07.755Z,7.20
2019-03-19T19:08:34.397Z,7.10
2019-03-19T19:11:01.103Z,6.90
2019-03-19T19:13:27.780Z,7.10
2019-03-19T19:15:54.605Z,7.20
2019-03-19T19:18:21.397Z,6.60
2019-03-19T19:20:48.498Z,6.20
2019-03-19T19:23:15.170Z,6.30
2019-03-19T19:25:41.940Z,6.70
2019-03-19T19:28:09.369Z,5.90
2019-03-19T19:30:36.275Z,6.30
2019-03-19T19:33:03.213Z,6.50
2019-03-19T19:35:30.061Z,6.20
2019-03-19T19:37:56.889Z,6.50
2019-03-19T19:40:23.509Z,6.70
2019-03-19T19:42:50.136Z,6.90
2019-03-19T19:45:17.359Z,6.60
2019-03-19T19:47:44.508Z,6.70
2019-03-19T19:50:11.817Z,7.00
2019-03-19T19:52:38.549Z,7.10
2019-03-19T19:55:05.197Z,7.10
2019-03-19T19:57:32.792Z,7.30
2019-03-19T20:00:01.748Z,6.70
2019-03-19T20:02:28.104Z,6.20
2019-03-19T20:05:03.003Z,6.30
2019-03-19T20:07:23.734Z,6.60
2019-03-19T20:09:50.695Z,6.80
2019-03-19T20:12:17.648Z,6.90
2019-03-19T20:14:46.935Z,6.90
2019-03-19T20:19:59.763Z,6.80
2019-03-19T20:22:32.429Z,7.00
2019-03-19T20:24:59.661Z,7.10
2019-03-19T20:27:26.765Z,7.10
2019-03-19T20:29:53.569Z,6.90
2019-03-19T20:32:20.216Z,7.10
2019-03-19T20:34:46.843Z,7.00
2019-03-19T20:37:13.738Z,7.20
2019-03-19T20:39:40.671Z,7.20
2019-03-19T20:42:07.596Z,6.20
2019-03-19T20:44:34.852Z,6.50
2019-03-19T20:47:01.493Z,6.50
2019-03-19T20:49:28.724Z,6.40
2019-03-19T20:51:55.536Z,6.30
2019-03-19T20:54:22.221Z,6.40
2019-03-19T20:56:49.445Z,5.90
2019-03-19T20:59:16.432Z,6.20
2019-03-19T21:01:43.116Z,6.40
2019-03-19T21:04:10.610Z,6.30
2019-03-19T21:06:37.564Z,6.20
2019-03-19T21:09:05.493Z,6.00
2019-03-19T21:11:32.182Z,6.10
2019-03-19T21:13:59.989Z,6.20
2019-03-19T21:16:29.380Z,6.30
2019-03-19T21:18:57.243Z,6.60
2019-03-19T21:21:24.140Z,6.60
2019-03-19T21:23:50.723Z,6.90
2019-03-19T21:26:17.476Z,6.70
2019-03-19T21:28:45.420Z,6.20
2019-03-19T21:31:12.017Z,5.90
2019-03-19T21:33:50.467Z,5.80
2019-03-19T21:36:08.471Z,6.10
2019-03-19T21:38:35.184Z,6.30
2019-03-19T21:41:02.288Z,6.50
2019-03-19T21:43:28.923Z,6.60
2019-03-19T21:45:55.519Z,6.90
2019-03-19T21:48:22.537Z,6.70
2019-03-19T21:50:49.244Z,6.30
2019-03-19T21:53:17.169Z,5.80
2019-03-19T21:55:46.422Z,6.00
2019-03-19T21:58:14.025Z,5.80
2019-03-19T22:00:41.753Z,6.20
2019-03-19T22:03:09.124Z,6.10
2019-03-19T22:05:36.722Z,6.20
2019-03-19T22:08:03.349Z,6.40
2019-03-19T22:10:30.783Z,6.60
2019-03-19T22:12:58.390Z,6.20
2019-03-19T22:15:25.016Z,6.00
2019-03-19T22:20:24.336Z,6.50
2019-03-19T22:22:51.120Z,6.70
2019-03-19T22:25:17.733Z,6.60
2019-03-19T22:27:45.563Z,6.60
2019-03-19T22:30:12.163Z,6.40
2019-03-19T22:32:39.108Z,6.00
2019-03-19T22:35:05.701Z,6.40
2019-03-19T22:37:32.349Z,6.60
2019-03-19T22:39:59.597Z,6.70
2019-03-19T22:42:26.203Z,6.60
2019-03-19T22:44:52.803Z,6.30
2019-03-19T22:47:19.456Z,6.30
2019-03-19T22:49:46.040Z,6.40
2019-03-19T22:52:12.918Z,6.50
2019-03-19T22:54:39.764Z,6.60
2019-03-19T22:57:06.634Z,6.30
2019-03-19T22:59:39.712Z,6.40
2019-03-19T23:02:07.099Z,6.30
2019-03-19T23:04:36.910Z,6.00
2019-03-19T23:07:07.385Z,6.40
2019-03-19T23:09:35.049Z,6.00
2019-03-19T23:12:01.953Z,6.20
2019-03-19T23:14:30.685Z,6.20
2019-03-19T23:17:04.903Z,6.70
2019-03-19T23:22:19.860Z,6.60
2019-03-19T23:24:49.332Z,6.50
2019-03-19T23:27:20.270Z,6.40
2019-03-19T23:29:51.634Z,5.90
2019-03-19T23:32:20.043Z,6.20
2019-03-19T23:34:51.067Z,6.40
2019-03-19T23:40:05.257Z,6.50
2019-03-19T23:42:33.076Z,5.80
2019-03-19T23:45:05.673Z,5.90
2019-03-19T23:47:34.251Z,6.10
2019-03-19T23:50:03.931Z,6.30
2019-03-19T23:52:32.338Z,6.50
2019-03-19T23:55:03.302Z,6.70
2019-03-19T23:57:34.717Z,6.70
